Time;durP1;ratioP1;P1;durP2;ratioP2;P2;SDS_P1;SDS_P2;PMS_P1;PMS_P2;Temp;Humidity;BMP_temperature;BMP_pressure;BME280_temperature;BME280_humidity;BME280_pressure;Samples;Min_cycle;Max_cycle;Signal;HPM_P1;HPM_P2
2021/08/10 02:29:22;;;;;;;26.70;12.55;;;;;;;19.69;44.31;99645.66;6146395;22;20024;-79
2021/08/10 02:31:51;;;;;;;27.55;11.90;;;;;;;19.71;44.27;99629.22;6110226;23;20107;-78
2021/08/10 02:34:22;;;;;;;33.35;13.77;;;;;;;19.71;44.33;99615.66;6233912;23;20020;-78
2021/08/10 02:36:52;;;;;;;27.92;12.02;;;;;;;19.88;43.99;99618.13;6211917;23;20344;-78
2021/08/10 02:39:20;;;;;;;24.40;11.77;;;;;;;20.11;43.96;99636.34;6211570;23;20411;-79
2021/08/10 02:41:46;;;;;;;28.30;13.77;;;;;;;20.14;44.22;99617.84;6158368;23;20344;-78
2021/08/10 02:44:13;;;;;;;30.63;13.18;;;;;;;20.44;44.40;99644.31;6211028;23;20021;-80
2021/08/10 02:46:42;;;;;;;28.25;13.30;;;;;;;20.50;44.04;99644.50;6240840;23;20438;-78
2021/08/10 02:49:10;;;;;;;27.40;12.15;;;;;;;20.47;43.74;99623.09;6246382;23;20043;-80
2021/08/10 02:51:37;;;;;;;31.00;14.02;;;;;;;20.63;43.49;99626.75;6266796;22;20020;-79
2021/08/10 02:54:04;;;;;;;29.92;13.18;;;;;;;20.90;43.28;99639.78;6236690;23;20385;-76
2021/08/10 02:56:34;;;;;;;33.22;13.60;;;;;;;20.90;43.16;99634.34;6212249;22;20048;-80
2021/08/10 02:59:12;;;;;;;36.13;13.77;;;;;;;20.97;42.94;99634.47;6312068;22;20024;-79
2021/08/10 03:02:02;;;;;;;41.90;17.00;;;;;;;21.18;42.64;99642.78;6285314;22;20466;-82
2021/08/10 03:04:28;;;;;;;40.45;16.50;;;;;;;21.24;42.46;99631.16;6261971;22;20013;-77
2021/08/10 03:06:55;;;;;;;36.33;17.23;;;;;;;21.28;42.24;99637.91;6262134;22;20091;-78
2021/08/10 03:09:21;;;;;;;42.08;16.48;;;;;;;21.34;42.07;99620.88;6261692;22;20462;-77
2021/08/10 03:11:49;;;;;;;42.67;17.60;;;;;;;21.49;42.15;99641.81;6260228;22;20028;-78
2021/08/10 03:14:15;;;;;;;41.67;17.63;;;;;;;21.55;41.47;99643.78;6211022;23;20020;-77
2021/08/10 03:16:43;;;;;;;42.38;16.05;;;;;;;21.44;41.56;99626.06;6236402;23;20054;-78
2021/08/10 03:19:10;;;;;;;53.50;16.80;;;;;;;21.55;41.75;99628.34;6261774;22;20027;-78
2021/08/10 03:21:37;;;;;;;40.13;16.60;;;;;;;21.72;41.94;99639.03;6234691;23;20023;-77
2021/08/10 03:24:05;;;;;;;46.30;17.30;;;;;;;21.73;42.24;99629.81;6236099;23;20447;-78
2021/08/10 03:26:32;;;;;;;38.28;16.58;;;;;;;21.75;42.74;99619.59;6234858;23;20367;-78
2021/08/10 03:29:00;;;;;;;37.47;15.68;;;;;;;21.88;42.41;99633.38;6229432;23;20471;-79
2021/08/10 03:31:35;;;;;;;30.77;14.60;;;;;;;21.58;42.49;99606.16;6128321;23;20021;-80
2021/08/10 03:34:05;;;;;;;36.10;15.02;;;;;;;21.53;41.67;99616.78;6153448;23;20312;-79
2021/08/10 03:36:34;;;;;;;31.92;12.40;;;;;;;21.81;41.28;99635.16;6128172;23;20017;-79
2021/08/10 03:39:02;;;;;;;29.52;12.25;;;;;;;21.57;40.33;99609.94;6131090;23;20021;-80
2021/08/10 03:41:31;;;;;;;26.98;13.07;;;;;;;21.72;40.05;99612.66;6080203;23;20107;-81
2021/08/10 03:44:01;;;;;;;30.30;13.43;;;;;;;21.82;40.24;99607.78;6107076;23;20352;-78
2021/08/10 03:46:32;;;;;;;;;;;;;;;22.28;40.48;99633.94;6128907;23;20073;-79
2021/08/10 03:49:21;;;;;;;30.58;13.65;;;;;;;22.61;40.16;99606.22;6129383;23;19912;-78
2021/08/10 03:51:50;;;;;;;33.73;14.43;;;;;;;22.85;39.62;99600.38;6128526;23;20443;-79
2021/08/10 03:54:18;;;;;;;40.67;16.13;;;;;;;23.11;39.51;99590.75;6104219;23;20712;-78
2021/08/10 03:56:46;;;;;;;40.83;17.20;;;;;;;23.40;38.75;99614.28;6103858;23;20070;-79
2021/08/10 03:59:12;;;;;;;57.42;20.27;;;;;;;23.50;38.89;99629.22;6128645;23;20027;-78
2021/08/10 04:01:45;;;;;;;55.90;24.65;;;;;;;23.54;39.50;99628.81;6082221;23;20056;-77
2021/08/10 04:04:11;;;;;;;;;;;;;;;23.63;39.71;99633.09;6081967;23;20526;-80
2021/08/10 04:06:48;;;;;;;61.60;27.50;;;;;;;23.44;39.96;99585.53;6132490;23;19972;-80
2021/08/10 04:09:16;;;;;;;64.05;30.02;;;;;;;23.71;39.67;99619.31;6079322;23;20098;-78
2021/08/10 04:11:42;;;;;;;64.40;28.45;;;;;;;23.81;39.78;99633.47;6080162;23;20021;-79
2021/08/10 04:14:45;;;;;;;56.50;26.45;;;;;;;23.82;39.27;99587.88;6179974;23;20016;-82
2021/08/10 04:17:30;;;;;;;53.75;24.65;;;;;;;24.12;38.92;99602.94;6191063;23;20097;-80
2021/08/10 04:19:59;;;;;;;62.63;24.88;;;;;;;24.29;38.00;99617.06;6154232;23;20021;-78
2021/08/10 04:22:25;;;;;;;66.43;21.27;;;;;;;24.58;37.98;99642.41;6104889;23;20020;-78
2021/08/10 04:25:37;;;;;;;65.38;18.05;;;;;;;24.45;37.92;99600.34;6080318;23;20116;-85
2021/08/10 04:28:12;;;;;;;93.18;26.48;;;;;;;24.72;37.49;99616.78;6176965;23;20037;-79
2021/08/10 04:30:48;;;;;;;71.95;18.38;;;;;;;24.71;36.92;99606.88;6102561;23;20466;-81
2021/08/10 04:33:30;;;;;;;91.82;17.20;;;;;;;24.79;36.92;99628.59;6152648;23;20070;-80
2021/08/10 04:36:23;;;;;;;;;;;;;;;;;;;;;
2021/08/10 04:39:16;;;;;;;87.80;15.00;;;;;;;25.11;36.88;99623.38;6120205;23;20028;-81
2021/08/10 04:41:53;;;;;;;70.43;15.35;;;;;;;25.38;36.48;99633.25;6127339;23;20028;-83
2021/08/10 04:45:23;;;;;;;90.20;17.23;;;;;;;25.36;36.52;99590.75;6078986;23;20459;-83
2021/08/10 04:48:34;;;;;;;68.53;15.45;;;;;;;25.66;35.97;99613.00;6158356;23;20024;-81
2021/08/10 04:51:05;;;;;;;57.30;16.58;;;;;;;25.84;35.34;99607.72;6128078;23;20027;-81
2021/08/10 04:53:41;;;;;;;51.40;15.30;;;;;;;25.97;35.05;99603.25;6128985;23;20036;-81
2021/08/10 04:56:34;;;;;;;67.00;14.88;;;;;;;25.72;35.09;99579.28;6135833;23;20052;-80
2021/08/10 04:59:02;;;;;;;79.38;16.83;;;;;;;25.77;35.50;99589.59;6128878;23;20042;-82
2021/08/10 05:01:28;;;;;;;62.13;15.00;;;;;;;25.88;35.28;99600.75;6103400;23;20347;-79
2021/08/10 05:03:55;;;;;;;65.82;14.95;;;;;;;25.94;35.17;99587.25;6127587;23;20511;-77
2021/08/10 05:06:27;;;;;;;52.67;14.45;;;;;;;26.00;35.18;99627.47;6129606;23;20017;-85
2021/08/10 05:08:58;;;;;;;58.92;14.48;;;;;;;25.83;35.59;99581.38;6104049;23;20528;-82
2021/08/10 05:11:56;;;;;;;48.53;14.55;;;;;;;26.26;34.96;99619.16;6104353;23;20025;-83
2021/08/10 05:14:58;;;;;;;51.53;13.88;;;;;;;26.45;34.61;99624.75;6112171;23;20100;-82
2021/08/10 05:17:58;;;;;;;50.00;14.65;;;;;;;26.51;33.76;99588.25;6128959;23;20017;-83
2021/08/10 05:20:52;;;;;;;45.08;14.13;;;;;;;26.72;33.42;99612.59;6137115;23;20021;-83
2021/08/10 05:23:29;;;;;;;43.83;14.00;;;;;;;26.48;33.82;99580.47;6105775;23;20017;-81
2021/08/10 05:26:14;;;;;;;39.58;13.13;;;;;;;26.53;33.68;99583.41;6107583;23;20024;-80
2021/08/10 05:29:04;;;;;;;36.92;14.48;;;;;;;26.87;33.65;99602.13;6133144;23;20090;-78
2021/08/10 05:31:42;;;;;;;41.95;14.07;;;;;;;27.11;33.21;99594.16;6140866;23;20020;-81
2021/08/10 05:34:15;;;;;;;49.58;13.38;;;;;;;27.29;32.95;99602.44;6133331;23;20031;-82
2021/08/10 05:36:52;;;;;;;41.65;14.65;;;;;;;27.32;32.86;99585.53;6112483;23;20115;-80
2021/08/10 05:39:39;;;;;;;29.13;13.77;;;;;;;27.44;32.62;99599.34;6158224;23;20032;-81
2021/08/10 05:42:34;;;;;;;34.17;14.70;;;;;;;27.53;31.80;99610.88;6123437;23;20359;-79
2021/08/10 05:45:05;;;;;;;38.28;15.23;;;;;;;27.56;32.24;99581.06;6109596;23;20020;-81
2021/08/10 05:47:32;;;;;;;36.75;14.93;;;;;;;27.90;31.84;99613.69;6084911;23;20020;-79
2021/08/10 05:50:00;;;;;;;36.87;14.77;;;;;;;27.88;31.62;99605.69;6157813;23;20074;-79
2021/08/10 05:52:35;;;;;;;46.38;14.32;;;;;;;27.79;31.50;99572.16;6134194;23;20038;-80
2021/08/10 05:55:24;;;;;;;51.83;26.83;;;;;;;27.82;31.21;99554.38;6157727;23;20436;-82
2021/08/10 05:58:07;;;;;;;37.65;16.50;;;;;;;27.90;31.14;99558.72;6143643;23;20016;-80
2021/08/10 06:00:44;;;;;;;41.30;15.68;;;;;;;28.05;30.61;99546.25;6109587;23;20028;-81
2021/08/10 06:03:18;;;;;;;33.00;12.30;;;;;;;28.22;29.62;99551.97;6088781;23;20029;-79
2021/08/10 06:05:56;;;;;;;30.33;11.60;;;;;;;28.21;29.63;99544.81;6141042;23;20056;-80
2021/08/10 06:08:34;;;;;;;28.33;11.68;;;;;;;28.39;29.38;99546.66;6134742;23;20072;-79
2021/08/10 06:11:01;;;;;;;25.27;11.43;;;;;;;28.49;29.22;99546.13;6132223;23;20016;-79
2021/08/10 06:13:31;;;;;;;23.88;11.43;;;;;;;28.50;28.98;99532.13;6084453;23;20675;-79
2021/08/10 06:15:58;;;;;;;27.50;11.05;;;;;;;28.60;28.25;99550.81;6108669;23;20115;-80
2021/08/10 06:18:26;;;;;;;24.67;11.30;;;;;;;28.68;28.44;99544.97;6132991;23;20017;-78
2021/08/10 06:21:07;;;;;;;25.38;11.30;;;;;;;28.72;28.60;99540.66;6132577;23;20024;-77
2021/08/10 06:23:49;;;;;;;25.67;11.40;;;;;;;28.88;28.21;99517.13;6136478;23;20032;-79
2021/08/10 06:26:41;;;;;;;22.58;10.57;;;;;;;29.47;27.67;99552.94;6109371;23;20028;-86
2021/08/10 06:33:34;;;;;;;23.05;10.00;;;;;;;29.72;27.16;99517.72;6182271;23;20021;-80
2021/08/10 06:36:09;;;;;;;26.03;10.57;;;;;;;29.83;27.41;99506.91;6131477;23;20013;-79
2021/08/10 06:38:51;;;;;;;32.22;10.20;;;;;;;30.17;26.94;99528.03;6131976;23;20029;-79
2021/08/10 06:41:26;;;;;;;21.63;10.80;;;;;;;30.24;27.29;99509.41;6153345;23;20136;-80
2021/08/10 06:44:05;;;;;;;29.08;11.70;;;;;;;30.24;27.54;99501.13;6156213;23;20024;-80
2021/08/10 06:46:39;;;;;;;33.05;11.80;;;;;;;30.51;27.22;99508.78;6132300;23;20024;-80
2021/08/10 06:49:10;;;;;;;25.23;11.45;;;;;;;30.80;27.30;99533.56;6083613;23;20024;-81
2021/08/10 06:51:37;;;;;;;22.42;10.02;;;;;;;30.91;27.19;99518.84;6082551;23;20048;-80
2021/08/10 06:54:07;;;;;;;;;;;;;;;30.94;26.67;99529.38;6084243;23;20545;-79
2021/08/10 06:56:35;;;;;;;16.40;9.07;;;;;;;30.85;26.34;99508.84;6155563;23;19916;-80
2021/08/10 06:59:12;;;;;;;22.17;8.57;;;;;;;31.00;25.81;99516.53;6131811;23;20021;-80
2021/08/10 07:01:48;;;;;;;17.15;8.77;;;;;;;31.16;25.69;99497.16;6155822;23;20345;-79
2021/08/10 07:04:17;;;;;;;18.65;9.20;;;;;;;31.41;25.67;99505.00;6086358;23;20444;-78
2021/08/10 07:06:46;;;;;;;28.73;9.70;;;;;;;31.70;25.87;99504.81;6105014;23;20112;-80
2021/08/10 07:09:23;;;;;;;20.52;9.63;;;;;;;31.87;25.28;99494.56;6111987;23;20038;-78
2021/08/10 07:11:49;;;;;;;18.92;8.90;;;;;;;31.95;25.34;99493.28;6105047;23;20021;-80
2021/08/10 07:14:18;;;;;;;17.15;8.85;;;;;;;32.04;25.11;99494.47;6153600;23;20049;-79
2021/08/10 07:16:48;;;;;;;25.02;11.55;;;;;;;32.09;25.08;99479.88;6153917;23;20025;-77
2021/08/10 07:19:15;;;;;;;21.08;9.60;;;;;;;32.28;25.10;99500.53;6128949;23;20017;-78
2021/08/10 07:21:50;;;;;;;21.83;8.63;;;;;;;32.38;24.70;99481.28;6082607;23;20017;-79
2021/08/10 07:24:20;;;;;;;22.95;8.57;;;;;;;32.58;24.36;99477.88;6107783;23;20021;-78
2021/08/10 07:26:55;;;;;;;21.67;10.38;;;;;;;32.73;24.06;99479.13;6085021;23;20047;-80
2021/08/10 07:29:40;;;;;;;;;;;;;;;;;;;;;
2021/08/10 07:32:28;;;;;;;21.25;7.78;;;;;;;32.79;23.94;99508.47;6130661;23;20121;-81
2021/08/10 07:34:59;;;;;;;17.98;7.72;;;;;;;32.74;23.69;99464.16;6128394;23;20066;-80
2021/08/10 07:37:29;;;;;;;10.23;6.50;;;;;;;32.93;23.96;99479.25;6130908;23;20017;-78
2021/08/10 07:40:02;;;;;;;17.95;8.32;;;;;;;33.13;23.00;99473.03;6130874;22;20020;-80
2021/08/10 07:42:31;;;;;;;16.13;7.55;;;;;;;32.72;23.23;99458.03;6083417;23;20028;-80
2021/08/10 07:44:58;;;;;;;11.40;7.10;;;;;;;33.16;23.16;99472.50;6104079;23;20324;-79
2021/08/10 07:47:31;;;;;;;12.10;6.85;;;;;;;33.16;23.17;99452.28;6107982;23;20013;-79
2021/08/10 07:49:59;;;;;;;9.90;5.97;;;;;;;33.30;23.16;99456.25;6080455;23;20017;-79
2021/08/10 07:52:39;;;;;;;12.98;5.82;;;;;;;33.69;22.78;99444.78;6227369;23;20054;-81
2021/08/10 07:55:16;;;;;;;8.40;5.65;;;;;;;34.05;22.09;99451.31;6105952;23;20018;-80
2021/08/10 07:57:53;;;;;;;8.98;5.07;;;;;;;33.28;23.13;99464.81;6107999;23;20021;-82
2021/08/10 08:00:41;;;;;;;16.50;5.15;;;;;;;33.76;22.89;99482.25;6133475;23;20032;-80
2021/08/10 08:03:11;;;;;;;8.90;5.25;;;;;;;33.76;22.58;99481.41;6080969;23;20393;-80
2021/08/10 08:05:53;;;;;;;18.92;5.80;;;;;;;33.71;22.77;99445.38;6108470;23;20021;-82
2021/08/10 08:08:22;;;;;;;10.25;5.72;;;;;;;33.71;22.82;99462.00;6106173;23;20033;-79
2021/08/10 08:10:53;;;;;;;9.23;4.68;;;;;;;33.75;22.74;99446.47;6105539;23;20020;-81
2021/08/10 08:13:37;;;;;;;12.45;4.78;;;;;;;33.75;22.50;99440.94;6134343;23;20363;-80
2021/08/10 08:16:10;;;;;;;9.75;5.03;;;;;;;33.86;22.36;99445.41;6083721;23;20021;-81
2021/08/10 08:18:50;;;;;;;11.65;4.60;;;;;;;33.69;22.89;99455.88;6105741;23;20021;-82
2021/08/10 08:21:36;;;;;;;10.15;5.18;;;;;;;33.84;22.70;99433.75;6113067;23;20021;-82
2021/08/10 08:24:22;;;;;;;;;;;;;;;;;;;;;
2021/08/10 08:27:25;;;;;;;10.23;4.63;;;;;;;34.77;22.33;99471.63;6114487;23;20452;-80
2021/08/10 08:30:38;;;;;;;8.52;4.57;;;;;;;34.77;22.02;99452.19;6146778;23;20420;-80
2021/08/10 08:33:15;;;;;;;11.57;4.50;;;;;;;34.94;21.58;99452.75;6131253;23;20040;-79
2021/08/10 08:35:52;;;;;;;10.88;4.68;;;;;;;34.71;22.07;99431.91;6107454;23;20017;-80
2021/08/10 08:38:23;;;;;;;9.57;4.60;;;;;;;35.28;21.49;99435.41;6130009;23;20352;-80
2021/08/10 08:41:20;;;;;;;9.48;4.22;;;;;;;35.03;21.60;99464.97;6082662;23;20041;-80
2021/08/10 08:44:09;;;;;;;16.83;4.13;;;;;;;35.04;22.02;99458.28;6131154;23;20024;-80
2021/08/10 08:46:57;;;;;;;9.15;4.70;;;;;;;35.78;21.29;99441.94;6062160;23;20189;-80
2021/08/10 08:50:06;;;;;;;10.30;4.32;;;;;;;35.98;21.20;99416.78;6039571;23;20052;-80
2021/08/10 08:52:45;;;;;;;14.02;4.10;;;;;;;36.42;20.71;99437.34;6063805;23;20029;-81
2021/08/10 08:55:18;;;;;;;11.40;4.40;;;;;;;35.32;21.29;99442.09;6152801;23;20028;-78
2021/08/10 08:57:55;;;;;;;8.05;4.32;;;;;;;34.88;22.07;99434.41;6104813;23;20021;-81
2021/08/10 09:00:25;;;;;;;10.82;4.28;;;;;;;35.06;22.18;99457.19;6154828;23;20028;-80
2021/08/10 09:02:52;;;;;;;10.05;4.13;;;;;;;35.12;21.82;99442.97;6129774;23;20347;-79
2021/08/10 09:05:19;;;;;;;12.48;3.65;;;;;;;35.47;21.56;99430.94;6128345;23;20028;-79
2021/08/10 09:07:55;;;;;;;10.95;3.83;;;;;;;35.78;21.24;99444.72;6081920;23;20032;-78
2021/08/10 09:10:29;;;;;;;9.05;3.60;;;;;;;35.35;21.46;99441.50;6082300;23;20025;-78
2021/08/10 09:13:01;;;;;;;8.82;3.50;;;;;;;34.71;22.30;99439.41;6131020;23;20052;-80
2021/08/10 09:16:20;;;;;;;;;;;;;;;;;;;;;
2021/08/10 09:20:02;;;;;;;10.43;4.45;;;;;;;33.63;23.89;99448.63;6177638;23;20486;-80
2021/08/10 09:23:04;;;;;;;14.55;4.47;;;;;;;33.94;23.57;99406.03;6128653;23;20100;-82
2021/08/10 09:25:44;;;;;;;9.88;4.05;;;;;;;34.45;22.85;99411.63;6109957;23;20072;-78
2021/08/10 09:28:12;;;;;;;13.20;3.30;;;;;;;34.83;22.37;99412.22;6128574;23;20013;-82
2021/08/10 09:30:55;;;;;;;8.63;3.55;;;;;;;34.74;22.22;99436.09;6114047;23;20028;-76
2021/08/10 09:33:40;;;;;;;15.05;3.80;;;;;;;34.66;22.36;99403.34;6153108;23;20021;-78
2021/08/10 09:36:22;;;;;;;6.28;3.30;;;;;;;34.89;22.30;99408.28;6134828;23;20090;-81
2021/08/10 09:38:54;;;;;;;8.65;3.30;;;;;;;34.50;22.51;99411.69;6084417;23;20074;-77
2021/08/10 09:41:21;;;;;;;14.60;3.60;;;;;;;34.49;22.81;99426.69;6128780;23;20356;-80
2021/08/10 09:44:05;;;;;;;9.23;3.33;;;;;;;34.10;23.03;99419.97;6079835;23;20017;-78
2021/08/10 09:46:35;;;;;;;9.27;4.35;;;;;;;34.20;23.07;99408.88;6128706;23;20021;-80
2021/08/10 09:49:08;;;;;;;16.83;3.40;;;;;;;34.35;23.02;99397.78;6131996;23;20032;-79
2021/08/10 09:51:40;;;;;;;15.18;3.20;;;;;;;34.52;22.87;99423.31;6155365;23;20444;-79
2021/08/10 09:54:14;;;;;;;9.70;3.10;;;;;;;34.84;22.92;99419.41;6080929;23;20234;-79
2021/08/10 15:37:25;;;;;;;21.50;5.40;;;;;;;29.55;36.46;99284.56;6123886;23;20046;-78
2021/08/10 15:39:53;;;;;;;15.98;5.07;;;;;;;29.48;37.17;99301.22;6207555;23;20067;-78
2021/08/10 15:42:19;;;;;;;21.50;6.18;;;;;;;29.34;37.04;99294.34;6181088;23;20024;-80
2021/08/10 15:44:45;;;;;;;16.27;5.05;;;;;;;29.26;37.36;99292.84;6159352;23;20024;-79
2021/08/10 15:47:11;;;;;;;12.00;5.43;;;;;;;29.12;37.38;99303.31;6134331;23;20096;-77
2021/08/10 15:49:39;;;;;;;11.50;4.88;;;;;;;29.09;37.65;99311.22;6210385;23;20081;-78
2021/08/10 15:52:06;;;;;;;15.82;5.10;;;;;;;29.04;37.65;99312.78;6210738;23;20031;-79
2021/08/10 15:54:32;;;;;;;17.20;4.65;;;;;;;28.96;38.10;99309.53;6158258;22;20366;-78
2021/08/10 15:56:58;;;;;;;11.43;4.88;;;;;;;28.89;38.13;99315.19;6110123;23;20021;-77
2021/08/10 15:59:25;;;;;;;11.02;5.50;;;;;;;28.80;38.33;99311.97;6184200;23;20028;-78
2021/08/10 16:01:51;;;;;;;11.10;5.68;;;;;;;28.73;38.08;99322.25;6184273;23;20017;-77
2021/08/10 16:04:17;;;;;;;12.77;5.20;;;;;;;28.61;38.42;99321.44;6159331;23;20047;-80
2021/08/10 16:06:43;;;;;;;17.30;5.70;;;;;;;28.48;38.78;99324.47;6210406;23;20339;-78
2021/08/10 16:09:09;;;;;;;13.98;6.30;;;;;;;28.43;38.85;99327.91;6209683;23;20020;-78
2021/08/10 16:11:35;;;;;;;13.77;6.10;;;;;;;28.27;39.06;99318.44;6210526;22;20035;-77
2021/08/10 16:14:01;;;;;;;8.93;5.63;;;;;;;28.18;38.99;99330.06;6209571;23;20043;-77
2021/08/10 16:16:28;;;;;;;13.80;5.78;;;;;;;28.05;39.10;99325.59;6183884;23;20455;-76
2021/08/10 16:18:54;;;;;;;13.98;6.00;;;;;;;27.94;39.38;99321.75;6184003;23;20038;-78
2021/08/10 16:21:20;;;;;;;16.13;6.30;;;;;;;27.94;39.23;99324.50;6134950;23;20320;-76
2021/08/10 16:23:46;;;;;;;20.10;5.93;;;;;;;27.89;39.08;99326.28;6159091;23;20016;-75
2021/08/10 16:26:12;;;;;;;22.67;5.80;;;;;;;27.81;39.61;99331.06;6183769;23;20074;-77
2021/08/10 16:28:39;;;;;;;17.65;5.25;;;;;;;27.71;39.49;99329.91;6135145;23;20021;-76
2021/08/10 16:31:07;;;;;;;14.65;5.28;;;;;;;27.64;39.77;99327.25;6184120;23;20017;-76
2021/08/10 16:33:33;;;;;;;14.27;5.43;;;;;;;27.57;39.96;99335.63;6134736;23;20019;-76
2021/08/10 16:35:59;;;;;;;18.05;4.88;;;;;;;27.47;40.01;99331.75;6210385;23;20016;-76
2021/08/10 16:38:25;;;;;;;11.85;4.93;;;;;;;27.35;40.31;99327.06;6209487;23;20457;-77
2021/08/10 16:40:51;;;;;;;14.02;5.30;;;;;;;27.23;40.80;99341.78;6134450;23;20355;-77
2021/08/10 16:43:17;;;;;;;10.55;4.78;;;;;;;27.15;40.90;99336.63;6160190;23;20099;-78
2021/08/10 16:45:43;;;;;;;11.43;5.10;;;;;;;27.14;40.81;99333.03;6160358;23;20462;-78
2021/08/10 16:48:09;;;;;;;16.20;4.90;;;;;;;27.08;41.28;99342.16;6159434;23;20360;-76
2021/08/10 16:50:35;;;;;;;8.73;4.50;;;;;;;27.04;41.24;99335.44;6210543;23;20024;-77
2021/08/10 16:53:01;;;;;;;12.57;5.05;;;;;;;26.98;41.37;99341.88;6209661;23;20017;-77
2021/08/10 16:55:27;;;;;;;16.50;4.63;;;;;;;26.95;41.39;99339.59;6210461;23;20461;-77
2021/08/10 16:57:53;;;;;;;18.60;5.45;;;;;;;26.87;41.56;99347.03;6210712;23;20017;-78
2021/08/10 17:00:19;;;;;;;16.23;5.32;;;;;;;26.81;41.99;99341.63;6210341;23;20048;-76
2021/08/10 17:02:46;;;;;;;12.50;5.15;;;;;;;26.78;41.89;99347.56;6183495;23;20027;-78
2021/08/10 17:05:12;;;;;;;11.07;5.20;;;;;;;26.68;42.40;99348.09;6158776;23;20024;-77
2021/08/10 17:07:38;;;;;;;21.63;5.75;;;;;;;26.65;42.06;99340.34;6209194;23;20027;-79
2021/08/10 17:10:05;;;;;;;16.48;5.10;;;;;;;26.50;42.47;99339.84;6159473;23;20016;-80
2021/08/10 17:12:31;;;;;;;14.18;5.25;;;;;;;26.47;42.76;99351.28;6184130;23;20463;-80
2021/08/10 17:15:25;;;;;;;15.07;4.95;;;;;;;26.43;42.86;99344.53;6133573;23;20104;-81
2021/08/10 17:17:57;;;;;;;8.65;4.82;;;;;;;26.32;42.87;99327.75;6181987;23;20016;-79
2021/08/10 17:20:31;;;;;;;15.93;5.22;;;;;;;26.23;42.79;99340.09;6111367;23;20092;-78
2021/08/10 17:23:03;;;;;;;15.27;5.47;;;;;;;26.11;42.96;99342.72;6115660;23;20021;-79
2021/08/10 17:25:43;;;;;;;15.05;5.20;;;;;;;26.15;43.15;99356.81;6095186;23;20428;-81
2021/08/10 17:28:20;;;;;;;13.80;5.32;;;;;;;26.17;43.06;99357.41;6069622;23;20024;-79
2021/08/10 17:30:54;;;;;;;11.75;5.70;;;;;;;26.03;43.36;99342.16;6092530;23;20028;-79
2021/08/10 17:33:28;;;;;;;12.10;5.45;;;;;;;25.99;43.28;99329.94;6093825;23;20450;-79
2021/08/10 17:36:10;;;;;;;14.10;5.65;;;;;;;26.03;43.39;99353.97;6026520;23;20021;-80
2021/08/10 17:38:44;;;;;;;11.20;5.30;;;;;;;25.84;43.94;99350.31;6070965;23;20475;-78
2021/08/10 17:41:29;;;;;;;12.48;5.40;;;;;;;25.74;44.06;99347.19;6063501;23;20052;-81
2021/08/10 17:44:03;;;;;;;13.75;6.05;;;;;;;25.67;44.02;99343.66;6159815;23;20022;-77
2021/08/10 17:46:47;;;;;;;13.85;6.30;;;;;;;25.71;44.07;99352.25;6131128;23;20029;-79
2021/08/10 17:49:30;;;;;;;12.43;6.07;;;;;;;25.62;44.14;99349.78;6148168;23;20360;-79
2021/08/10 17:52:08;;;;;;;19.58;5.82;;;;;;;25.63;44.17;99350.63;6138161;23;20022;-80
2021/08/10 17:54:52;;;;;;;13.50;6.35;;;;;;;25.47;44.62;99326.53;6041247;23;20034;-84
2021/08/10 17:57:19;;;;;;;14.23;6.18;;;;;;;25.54;44.17;99355.53;6016426;23;20029;-81
2021/08/10 17:59:55;;;;;;;16.80;6.30;;;;;;;25.38;44.48;99336.88;6161666;22;20025;-80
2021/08/10 18:02:33;;;;;;;11.77;7.00;;;;;;;25.51;44.44;99363.34;6104558;23;20066;-80
2021/08/10 18:05:08;;;;;;;18.35;6.60;;;;;;;25.34;44.83;99341.94;6160324;23;20403;-80
2021/08/10 18:07:56;;;;;;;19.15;6.38;;;;;;;25.34;44.48;99352.88;6038075;23;20102;-82
2021/08/10 18:10:42;;;;;;;12.07;5.97;;;;;;;25.21;44.57;99341.19;6129323;22;20122;-80
2021/08/10 18:13:16;;;;;;;14.57;6.65;;;;;;;25.10;45.04;99351.75;6103359;23;20158;-82
2021/08/10 18:15:53;;;;;;;18.02;7.57;;;;;;;25.05;45.13;99345.19;6103077;23;20116;-82
2021/08/10 18:18:45;;;;;;;;;;;;;;;;;;;;;
2021/08/10 18:21:46;;;;;;;12.60;7.18;;;;;;;24.96;45.62;99370.06;6179034;23;20016;-82
2021/08/10 18:24:48;;;;;;;16.27;7.60;;;;;;;24.84;46.10;99365.47;6131137;23;20082;-81
2021/08/10 18:27:19;;;;;;;17.13;8.15;;;;;;;24.76;46.00;99361.09;6137808;23;20031;-81
2021/08/10 18:29:52;;;;;;;22.30;7.60;;;;;;;24.80;46.30;99378.72;6142295;23;20028;-81
2021/08/10 18:32:19;;;;;;;11.95;7.63;;;;;;;24.63;46.52;99366.56;6133956;23;20017;-80
2021/08/10 18:34:46;;;;;;;15.98;7.53;;;;;;;24.54;46.79;99362.38;6129639;23;20017;-80
2021/08/10 18:37:15;;;;;;;14.88;7.65;;;;;;;24.49;46.98;99370.41;6106945;23;20356;-80
2021/08/10 18:39:44;;;;;;;14.32;8.13;;;;;;;24.49;46.66;99364.94;6136193;23;20480;-81
2021/08/10 18:42:11;;;;;;;19.85;8.18;;;;;;;24.41;47.17;99372.28;6110379;23;20107;-79
2021/08/10 18:44:40;;;;;;;15.70;8.18;;;;;;;24.31;47.26;99360.91;6119527;23;20325;-82
2021/08/10 18:47:21;;;;;;;16.45;8.07;;;;;;;24.40;47.13;99389.72;6136132;23;20025;-83
2021/08/10 18:50:00;;;;;;;11.57;7.95;;;;;;;24.27;47.36;99378.78;6171107;23;20017;-82
2021/08/10 18:52:37;;;;;;;17.17;8.07;;;;;;;24.24;47.70;99387.38;6112470;23;20024;-80
2021/08/10 18:55:04;;;;;;;19.70;8.05;;;;;;;24.14;48.12;99385.06;6123814;23;20105;-80
2021/08/10 18:57:30;;;;;;;16.10;7.82;;;;;;;24.01;48.43;99384.22;6147038;23;20079;-79
2021/08/10 18:59:57;;;;;;;21.90;9.52;;;;;;;23.91;48.88;99384.63;6085761;23;20041;-80
2021/08/10 19:02:24;;;;;;;;;;;;;;;23.80;49.04;99379.78;6131353;23;20459;-80
2021/08/10 19:04:50;;;;;;;;;;;;;;;23.71;49.68;99381.88;6125366;23;19940;-80
2021/08/10 19:07:17;;;;;;;;;;;;;;;23.71;50.04;99379.16;6125298;23;19994;-80
2021/08/10 19:09:45;;;;;;;;;;;;;;;23.72;49.68;99383.53;6156658;23;19912;-80
2021/08/10 19:12:14;;;;;;;;;;;;;;;23.75;50.25;99381.25;6142559;23;19939;-82
2021/08/10 19:14:43;;;;;;;;;;;;;;;23.59;50.41;99391.69;6160759;22;19965;-79
2021/08/10 19:17:09;;;;;;;;;;;;;;;23.55;50.68;99402.16;6100077;23;20366;-80
2021/08/10 19:19:35;;;;;;;;;;;;;;;23.46;50.78;99400.66;6100692;23;19928;-79
2021/08/10 19:22:00;;;;;;;;;;;;;;;23.47;51.34;99400.47;6149694;23;19916;-79
2021/08/10 19:24:26;;;;;;;;;;;;;;;23.40;51.26;99388.69;6140118;23;19916;-79
2021/08/10 19:26:52;;;;;;;;;;;;;;;23.37;51.55;99400.00;6198428;23;20367;-78
2021/08/10 19:29:18;;;;;;;;;;;;;;;23.16;52.14;99397.38;6095332;23;19921;-81
2021/08/10 19:31:44;;;;;;;;;;;;;;;23.14;52.43;99394.03;6095923;23;19917;-80
2021/08/10 19:34:10;;;;;;;;;;;;;;;23.08;52.67;99403.00;6095807;23;20027;-80
2021/08/10 19:36:36;;;;;;;;;;;;;;;23.05;52.62;99395.22;6125149;23;19921;-80
2021/08/10 19:39:02;;;;;;;;;;;;;;;22.96;53.13;99402.75;6095020;23;20340;-79
2021/08/10 19:41:27;;;;;;;;;;;;;;;22.87;53.32;99409.34;6120179;23;19916;-81
2021/08/10 19:43:53;;;;;;;;;;;;;;;22.80;53.71;99409.34;6120220;23;19917;-78
2021/08/10 19:46:19;;;;;;;;;;;;;;;22.73;53.47;99403.00;6120221;23;19923;-79
2021/08/10 19:48:47;;;;;;;;;;;;;;;22.60;54.24;99409.19;6095567;23;20302;-79
2021/08/10 19:51:13;;;;;;;;;;;;;;;22.55;54.26;99412.50;6095743;23;19917;-79
2021/08/10 19:53:39;;;;;;;;;;;;;;;22.52;54.41;99410.19;6071731;23;19968;-79
2021/08/10 19:56:06;;;;;;;;;;;;;;;22.49;54.32;99410.59;6097544;23;19991;-78
2021/08/10 19:58:32;;;;;;;;;;;;;;;22.48;54.59;99425.25;6143417;23;20003;-80
2021/08/10 20:00:59;;;;;;;;;;;;;;;22.39;54.59;99422.88;6131366;23;19916;-79
2021/08/10 20:03:25;;;;;;;;;;;;;;;22.25;55.07;99416.47;6181623;23;19923;-78
2021/08/10 20:05:51;;;;;;;;;;;;;;;22.14;55.33;99411.53;6107007;23;19942;-79
2021/08/10 20:08:17;;;;;;;;;;;;;;;22.04;55.74;99415.44;6155365;23;19916;-80
2021/08/10 20:10:42;;;;;;;;;;;;;;;21.91;55.93;99417.16;6130687;23;19923;-77
2021/08/10 20:13:08;;;;;;;;;;;;;;;21.91;56.00;99415.28;6155668;23;19916;-77
2021/08/10 20:15:34;;;;;;;;;;;;;;;21.79;56.03;99406.78;6181594;23;19948;-78
2021/08/10 20:18:00;;;;;;;;;;;;;;;21.84;55.87;99400.75;6180228;23;19917;-80
2021/08/10 20:20:27;;;;;;;;;;;;;;;21.77;56.24;99403.41;6179447;23;19991;-79
2021/08/10 20:22:52;;;;;;;;;;;;;;;21.64;56.31;99399.72;6181748;23;19927;-78
2021/08/10 20:25:19;;;;;;;;;;;;;;;21.64;56.30;99399.72;6131159;23;19916;-79